Pagina principală
METAR-TAF:

METAR-TAF

Aeroporturi :

Puerto Williams, Chile

Latitudine: 54-56-00S, longitudine: 067-37-00W, elevație: 27 m

Observații meteo curente

Raportul a fost făcut în urmă cu 14 ore și 3 de minute, la 20:00 UTC
Vânt 3 kt de la Sud/Sud-est
Temperatură 4°C
Umiditate 65%
Presiune 1005 hPa
Vizibilitate de 10 km sau mai mult
Nori puțini la o înălțime de 6000 picior
Nori împrăștiați la o înălțime de 7600 picior
Nori fragmentați la o înălțime de 10000 picior

METAR: SCGZ 272000Z 16003KT 9999 FEW060 SCT076 BKN100 04/M02 Q1005

Ora: 06:03 (10:03 UTC)


TAF: lipsă

Observații și prognoze meteo pentru peste 4.000 de aeroporturi (rapoarte METAR și TAF).

Stațiile disponibile sunt reprezentate pe hartă prin puncte galbene și roșii.

Țineți indicatorul mouse-ului pe punctul dorit pentru a vedea denumirea stației.

Apoi, faceți clic pentru a vedea observațiile și prognozele meteorologice.

Pentru a schimba harta: Pentru mărire, faceți clic pe butoanele verzi cu cruce neagră; pentru micșorare, pe butonul verde cu o liniuță; pentru hărți învecinate, pe săgețile verzi.


METAR-TAF: